Time;durP1;ratioP1;P1;durP2;ratioP2;P2;SDS_P1;SDS_P2;PMS_P1;PMS_P2;Temp;Humidity;BMP_temperature;BMP_pressure;BME280_temperature;BME280_humidity;BME280_pressure;Samples;Min_cycle;Max_cycle;Signal;HPM_P1;HPM_P2
2023/12/18 00:00:10;;;;;;;59.58;38.25;;;0.50;99.90;;;;;;5136751;27;20048;-80
2023/12/18 00:02:36;;;;;;;54.25;31.02;;;0.50;99.90;;;;;;5136823;27;20118;-79
2023/12/18 00:05:01;;;;;;;41.95;27.77;;;0.60;99.90;;;;;;5137091;27;20047;-79
2023/12/18 00:07:27;;;;;;;41.38;24.67;;;0.50;99.90;;;;;;5136671;27;20576;-78
2023/12/18 00:09:53;;;;;;;49.92;28.40;;;0.50;99.90;;;;;;5118281;27;20020;-78
2023/12/18 00:12:18;;;;;;;71.20;45.13;;;0.50;99.90;;;;;;5118453;27;20023;-79
2023/12/18 00:14:44;;;;;;;56.00;31.75;;;0.50;99.90;;;;;;5118110;27;20015;-78
2023/12/18 00:17:09;;;;;;;43.83;27.45;;;0.50;99.90;;;;;;5136774;27;20386;-80
2023/12/18 00:19:35;;;;;;;50.35;28.95;;;0.50;99.90;;;;;;5130067;27;20031;-80
2023/12/18 00:22:01;;;;;;;45.53;25.77;;;0.50;99.90;;;;;;5118248;27;20083;-80
2023/12/18 00:24:26;;;;;;;45.80;26.10;;;0.50;99.90;;;;;;5136848;27;20020;-79
2023/12/18 00:26:52;;;;;;;47.17;31.98;;;0.50;99.90;;;;;;5136827;27;20091;-79
2023/12/18 00:29:18;;;;;;;49.55;26.85;;;0.50;99.90;;;;;;5136473;27;20058;-79
2023/12/18 00:31:43;;;;;;;48.92;27.35;;;0.50;99.90;;;;;;5136538;27;20034;-79
2023/12/18 00:34:09;;;;;;;42.70;27.70;;;0.50;99.90;;;;;;5136657;27;21252;-79
2023/12/18 00:36:34;;;;;;;41.35;27.90;;;0.50;99.90;;;;;;5136327;28;20051;-79
2023/12/18 00:39:00;;;;;;;46.30;27.45;;;0.40;99.90;;;;;;5136690;28;20056;-79
2023/12/18 00:41:26;;;;;;;45.75;25.35;;;0.40;99.90;;;;;;5136509;28;20083;-79
2023/12/18 00:43:51;;;;;;;42.88;27.67;;;0.40;99.90;;;;;;5136144;28;20376;-79
2023/12/18 00:46:17;;;;;;;57.65;33.15;;;0.30;99.90;;;;;;5117944;28;20372;-79
2023/12/18 00:48:42;;;;;;;44.83;28.73;;;0.40;99.90;;;;;;5136334;28;20030;-79
2023/12/18 00:51:11;;;;;;;50.00;33.00;;;0.40;99.90;;;;;;5136455;28;20027;-79
2023/12/18 00:53:37;;;;;;;55.45;32.03;;;0.30;99.90;;;;;;5117142;28;20035;-79
2023/12/18 00:56:03;;;;;;;50.50;31.90;;;0.30;99.90;;;;;;5136328;28;20072;-79
2023/12/18 00:58:28;;;;;;;50.38;31.17;;;0.20;99.90;;;;;;5136266;28;20045;-79
2023/12/18 01:00:54;;;;;;;53.50;34.00;;;0.20;99.90;;;;;;5117686;28;20136;-79
2023/12/18 01:03:19;;;;;;;53.50;32.78;;;0.20;99.90;;;;;;5136283;28;20490;-79
2023/12/18 01:05:45;;;;;;;62.90;37.55;;;0.10;99.90;;;;;;5136157;28;20034;-79
2023/12/18 01:08:12;;;;;;;65.60;37.13;;;0.10;99.90;;;;;;5136050;28;20030;-79
2023/12/18 01:10:38;;;;;;;55.53;35.17;;;0.10;99.90;;;;;;5136203;28;20106;-79
2023/12/18 01:13:04;;;;;;;63.55;37.15;;;0.10;99.90;;;;;;5136090;28;20053;-79
2023/12/18 01:15:29;;;;;;;55.00;36.80;;;0.00;99.90;;;;;;5117717;28;20034;-79
2023/12/18 01:17:55;;;;;;;58.53;38.55;;;0.00;99.90;;;;;;5117769;28;20031;-79
2023/12/18 01:20:21;;;;;;;66.03;39.80;;;0.00;99.90;;;;;;5117577;28;20042;-80
2023/12/18 01:22:46;;;;;;;74.18;45.10;;;-0.10;99.90;;;;;;5117023;28;20387;-79
2023/12/18 01:25:12;;;;;;;69.97;43.25;;;-0.10;99.90;;;;;;5136127;28;20031;-79
2023/12/18 01:27:38;;;;;;;67.90;44.72;;;-0.10;99.90;;;;;;5136063;28;20376;-78
2023/12/18 01:30:05;;;;;;;75.10;44.22;;;-0.20;99.90;;;;;;5135794;28;20357;-78
2023/12/18 01:32:31;;;;;;;68.40;44.88;;;-0.20;99.90;;;;;;5136086;28;20102;-78
2023/12/18 01:34:57;;;;;;;80.47;44.92;;;-0.30;99.90;;;;;;5117533;28;20023;-78
2023/12/18 01:37:23;;;;;;;69.10;42.17;;;-0.30;99.90;;;;;;5135832;28;20034;-78
2023/12/18 01:39:48;;;;;;;61.92;38.13;;;-0.30;99.90;;;;;;5136047;28;20398;-78
2023/12/18 01:42:14;;;;;;;64.38;37.13;;;-0.30;99.90;;;;;;5137607;27;20451;-78
2023/12/18 01:44:40;;;;;;;52.63;33.85;;;-0.30;99.90;;;;;;5139444;27;20037;-78
2023/12/18 01:47:06;;;;;;;53.05;30.17;;;-0.30;99.90;;;;;;5139611;27;20031;-77
2023/12/18 01:49:32;;;;;;;48.50;28.25;;;-0.30;99.90;;;;;;5139479;27;20448;-77
2023/12/18 01:51:59;;;;;;;46.55;28.60;;;-0.30;99.90;;;;;;5139471;27;20023;-77
2023/12/18 01:54:25;;;;;;;48.92;28.40;;;-0.30;99.90;;;;;;5120797;27;20043;-77
2023/12/18 01:56:54;;;;;;;47.63;27.52;;;-0.30;99.90;;;;;;5139496;27;20434;-78
2023/12/18 01:59:21;;;;;;;47.00;28.92;;;-0.30;99.90;;;;;;5138979;27;20022;-78
2023/12/18 02:01:48;;;;;;;56.80;31.45;;;-0.20;99.90;;;;;;5139544;27;20556;-78
2023/12/18 02:04:14;;;;;;;53.33;31.88;;;-0.20;99.90;;;;;;5139254;27;20019;-78
2023/12/18 02:06:41;;;;;;;61.33;33.22;;;-0.10;99.90;;;;;;5139002;27;20090;-78
2023/12/18 02:09:07;;;;;;;52.03;30.27;;;-0.20;99.90;;;;;;5133979;27;20076;-78
2023/12/18 02:11:33;;;;;;;61.30;32.30;;;-0.20;99.90;;;;;;5135989;27;20023;-79
2023/12/18 02:13:58;;;;;;;50.10;31.13;;;-0.20;99.90;;;;;;5138833;27;20027;-79
2023/12/18 02:16:24;;;;;;;56.65;32.17;;;-0.20;99.90;;;;;;5139223;27;20083;-77
2023/12/18 02:18:50;;;;;;;59.28;33.55;;;-0.20;99.90;;;;;;5135512;27;20020;-78
2023/12/18 02:21:20;;;;;;;59.38;32.30;;;-0.30;99.90;;;;;;5116356;27;20031;-77
2023/12/18 02:23:49;;;;;;;53.97;32.57;;;-0.30;99.90;;;;;;5138952;27;20023;-77
2023/12/18 02:26:16;;;;;;;46.28;28.67;;;-0.30;99.90;;;;;;5138978;27;20039;-77
2023/12/18 02:28:43;;;;;;;54.30;29.92;;;-0.30;99.90;;;;;;5138404;27;20045;-77
2023/12/18 02:31:11;;;;;;;51.03;31.23;;;-0.30;99.90;;;;;;5138746;27;20069;-77
2023/12/18 02:33:36;;;;;;;52.00;28.52;;;-0.30;99.90;;;;;;5120211;27;20027;-77
2023/12/18 02:36:02;;;;;;;56.38;30.95;;;-0.30;99.90;;;;;;5138587;27;20027;-77
2023/12/18 02:38:28;;;;;;;48.88;28.52;;;-0.20;99.90;;;;;;5120074;27;20011;-78
2023/12/18 02:40:53;;;;;;;49.30;28.70;;;-0.30;99.90;;;;;;5138452;27;20106;-77
2023/12/18 02:43:19;;;;;;;50.63;29.70;;;-0.20;99.90;;;;;;5138444;27;20079;-77
2023/12/18 02:45:44;;;;;;;49.35;29.33;;;-0.10;99.90;;;;;;5138447;27;20290;-78
2023/12/18 02:48:10;;;;;;;50.55;28.35;;;-0.10;99.90;;;;;;5138372;27;20022;-77
2023/12/18 02:50:36;;;;;;;52.55;31.63;;;-0.10;99.90;;;;;;5138317;27;20391;-77
2023/12/18 02:53:01;;;;;;;55.05;31.70;;;-0.10;99.90;;;;;;5137585;27;20030;-77
2023/12/18 02:55:28;;;;;;;57.38;31.30;;;-0.20;99.90;;;;;;5119426;27;20520;-77
2023/12/18 02:57:54;;;;;;;50.22;28.13;;;-0.20;99.90;;;;;;5138289;27;20035;-78
2023/12/18 03:00:19;;;;;;;59.03;31.45;;;-0.20;99.90;;;;;;5137842;27;20502;-77
2023/12/18 03:02:45;;;;;;;61.55;32.22;;;-0.30;99.90;;;;;;5138231;27;20031;-77
2023/12/18 03:05:11;;;;;;;62.10;32.03;;;-0.30;99.90;;;;;;5138236;27;20030;-77
2023/12/18 03:07:36;;;;;;;59.13;35.45;;;-0.30;99.90;;;;;;5137816;27;20031;-77
2023/12/18 03:10:02;;;;;;;61.08;35.05;;;-0.30;99.90;;;;;;5138058;27;20030;-77
2023/12/18 03:12:28;;;;;;;52.20;33.47;;;-0.30;99.90;;;;;;5137865;27;20107;-77
2023/12/18 03:14:54;;;;;;;53.50;33.35;;;-0.40;99.90;;;;;;5137683;27;20045;-77
2023/12/18 03:17:20;;;;;;;56.58;34.10;;;-0.40;99.90;;;;;;5137636;27;20107;-77
2023/12/18 03:19:45;;;;;;;58.28;35.47;;;-0.40;99.90;;;;;;5131387;27;20060;-77
2023/12/18 03:22:13;;;;;;;64.15;37.38;;;-0.50;99.90;;;;;;5137500;27;20031;-77
2023/12/18 03:24:39;;;;;;;64.82;38.45;;;-0.50;99.90;;;;;;5115880;28;20038;-77
2023/12/18 03:27:05;;;;;;;68.65;37.92;;;-0.50;99.90;;;;;;5136575;27;20292;-77
2023/12/18 03:29:30;;;;;;;76.47;44.58;;;-0.50;99.90;;;;;;5137628;27;20023;-77
2023/12/18 03:31:56;;;;;;;61.33;37.30;;;-0.50;99.90;;;;;;5137522;27;20023;-77
2023/12/18 03:34:22;;;;;;;64.90;37.33;;;-0.50;99.90;;;;;;5137529;27;20022;-77
2023/12/18 03:36:47;;;;;;;56.58;34.92;;;-0.50;99.90;;;;;;5137123;27;20026;-77
2023/12/18 03:39:13;;;;;;;63.42;35.97;;;-0.50;99.90;;;;;;5115623;28;20502;-78
2023/12/18 03:41:39;;;;;;;61.30;35.95;;;-0.50;99.90;;;;;;5114210;28;20023;-78
2023/12/18 03:44:04;;;;;;;58.58;34.08;;;-0.50;99.90;;;;;;5116427;27;20042;-78
2023/12/18 03:46:30;;;;;;;61.28;33.92;;;-0.50;99.90;;;;;;5137366;27;20026;-78
2023/12/18 03:48:56;;;;;;;59.65;33.53;;;-0.50;99.90;;;;;;5137218;27;20059;-78
2023/12/18 03:51:21;;;;;;;53.85;32.83;;;-0.50;99.90;;;;;;5118607;27;20023;-78
2023/12/18 03:53:47;;;;;;;53.28;31.73;;;-0.50;99.90;;;;;;5137156;27;20043;-78
2023/12/18 03:56:13;;;;;;;51.05;30.40;;;-0.50;99.90;;;;;;5137472;27;20459;-78
2023/12/18 03:58:38;;;;;;;55.13;31.80;;;-0.50;99.90;;;;;;5118432;27;20023;-78
2023/12/18 04:01:04;;;;;;;51.95;30.98;;;-0.50;99.90;;;;;;5136792;27;20057;-78
2023/12/18 04:03:29;;;;;;;58.05;32.30;;;-0.40;99.90;;;;;;5137096;27;20051;-78
2023/12/18 04:05:55;;;;;;;50.95;31.42;;;-0.40;99.90;;;;;;5116706;27;20084;-78
2023/12/18 04:08:21;;;;;;;57.30;32.10;;;-0.30;99.90;;;;;;5114124;28;20431;-79
2023/12/18 04:10:46;;;;;;;56.22;31.17;;;-0.40;99.90;;;;;;5131705;27;20023;-78
2023/12/18 04:13:12;;;;;;;48.95;29.45;;;-0.40;99.90;;;;;;5136796;27;20110;-78
2023/12/18 04:15:38;;;;;;;57.30;30.38;;;-0.50;99.90;;;;;;5136748;27;20106;-78
2023/12/18 04:18:06;;;;;;;53.10;30.27;;;-0.40;99.90;;;;;;5136830;27;20491;-78
2023/12/18 04:20:32;;;;;;;51.33;29.33;;;-0.50;99.90;;;;;;5134626;27;20031;-78
2023/12/18 04:22:58;;;;;;;53.40;30.17;;;-0.50;99.90;;;;;;5136629;27;20023;-78
2023/12/18 04:25:24;;;;;;;53.22;31.50;;;-0.40;99.90;;;;;;5136625;27;20031;-77
2023/12/18 04:27:50;;;;;;;56.78;33.58;;;-0.30;99.90;;;;;;5136596;27;20101;-77
2023/12/18 04:30:16;;;;;;;62.17;34.45;;;-0.20;99.90;;;;;;5117812;28;20485;-77
2023/12/18 04:32:42;;;;;;;66.15;37.50;;;-0.20;99.90;;;;;;5136530;27;20015;-77
2023/12/18 04:35:07;;;;;;;60.22;34.28;;;-0.20;99.90;;;;;;5117904;27;20037;-77
2023/12/18 04:37:34;;;;;;;73.00;37.75;;;-0.20;99.90;;;;;;5136440;27;20023;-77
2023/12/18 04:39:59;;;;;;;66.40;39.65;;;-0.20;99.90;;;;;;5136563;27;20053;-77
2023/12/18 04:42:25;;;;;;;70.05;41.75;;;-0.30;99.90;;;;;;5136508;27;20403;-77
2023/12/18 04:44:51;;;;;;;71.00;41.58;;;-0.30;99.90;;;;;;5136192;28;20031;-78
2023/12/18 04:47:17;;;;;;;62.85;40.13;;;-0.40;99.90;;;;;;5136443;28;20023;-77
2023/12/18 04:49:42;;;;;;;64.97;40.97;;;-0.40;99.90;;;;;;5117889;28;20588;-78
2023/12/18 04:52:08;;;;;;;68.85;41.65;;;-0.40;99.90;;;;;;5136202;28;20156;-77
2023/12/18 04:54:34;;;;;;;77.20;44.17;;;-0.40;99.90;;;;;;5135967;28;20058;-78
2023/12/18 04:56:59;;;;;;;73.63;44.35;;;-0.50;99.90;;;;;;5136324;28;20878;-78
2023/12/18 04:59:25;;;;;;;70.60;43.17;;;-0.50;99.90;;;;;;5136157;28;20108;-78
2023/12/18 05:01:50;;;;;;;78.72;46.85;;;-0.40;99.90;;;;;;5136417;28;20024;-77
2023/12/18 05:04:16;;;;;;;73.70;45.03;;;-0.50;99.90;;;;;;5136428;28;20088;-77
2023/12/18 05:06:42;;;;;;;84.65;49.03;;;-0.50;99.90;;;;;;5114237;28;20081;-78
2023/12/18 05:09:08;;;;;;;81.30;45.30;;;-0.60;99.90;;;;;;5134832;28;20038;-78
2023/12/18 05:11:35;;;;;;;73.35;41.80;;;-0.50;99.90;;;;;;5114378;28;20027;-77
2023/12/18 05:14:00;;;;;;;78.90;43.88;;;-0.60;99.90;;;;;;5113181;28;20020;-78
2023/12/18 05:16:26;;;;;;;78.28;44.67;;;-0.60;99.90;;;;;;5133813;27;20029;-77
2023/12/18 05:18:53;;;;;;;78.10;45.33;;;-0.70;99.90;;;;;;5118216;28;20027;-77
2023/12/18 05:21:19;;;;;;;77.93;44.45;;;-0.70;99.90;;;;;;5137472;27;20047;-78
2023/12/18 05:23:47;;;;;;;73.38;44.08;;;-0.70;99.90;;;;;;5140086;27;20398;-77
2023/12/18 05:26:13;;;;;;;79.18;47.05;;;-0.70;99.90;;;;;;5140155;27;20019;-77
2023/12/18 05:28:38;;;;;;;74.15;43.25;;;-0.80;99.90;;;;;;5139670;27;20029;-77
2023/12/18 05:31:08;;;;;;;69.93;45.38;;;-0.80;99.90;;;;;;5139856;27;20069;-78
2023/12/18 05:33:33;;;;;;;76.28;45.30;;;-0.80;99.90;;;;;;5139823;27;20027;-78
2023/12/18 05:35:59;;;;;;;76.05;46.15;;;-0.80;99.90;;;;;;5139871;27;20029;-78
2023/12/18 05:38:24;;;;;;;74.03;44.15;;;-0.80;99.90;;;;;;5139598;27;20049;-78
2023/12/18 05:40:50;;;;;;;73.22;43.22;;;-0.80;99.90;;;;;;5139852;27;20022;-79
2023/12/18 05:43:15;;;;;;;72.35;44.50;;;-0.80;99.90;;;;;;5120898;27;20027;-79
2023/12/18 05:45:41;;;;;;;70.80;46.25;;;-0.80;99.90;;;;;;5139832;27;20090;-79
2023/12/18 05:48:07;;;;;;;72.05;45.75;;;-0.80;99.90;;;;;;5120989;27;20027;-79
2023/12/18 05:50:33;;;;;;;76.70;48.70;;;-0.90;99.90;;;;;;5139666;27;20391;-78
2023/12/18 05:52:59;;;;;;;75.18;47.92;;;-0.90;99.90;;;;;;5139329;27;20387;-79
2023/12/18 05:55:24;;;;;;;73.90;47.92;;;-0.90;99.90;;;;;;5139333;27;20051;-79
2023/12/18 05:57:50;;;;;;;72.63;44.35;;;-0.90;99.90;;;;;;5139264;27;20031;-78
2023/12/18 06:00:17;;;;;;;78.70;43.38;;;-0.90;99.90;;;;;;5139378;27;20076;-79
2023/12/18 06:02:43;;;;;;;68.28;42.92;;;-0.90;99.90;;;;;;5139196;27;20026;-78
2023/12/18 06:05:09;;;;;;;70.20;42.92;;;-0.90;99.90;;;;;;5139344;27;20051;-78
2023/12/18 06:07:34;;;;;;;76.82;45.80;;;-0.90;99.90;;;;;;5139111;27;20027;-78
2023/12/18 06:10:00;;;;;;;76.35;48.50;;;-1.00;99.90;;;;;;5111012;28;20035;-78
2023/12/18 06:12:26;;;;;;;77.10;46.38;;;-1.00;99.90;;;;;;5115490;27;20454;-79
2023/12/18 06:14:51;;;;;;;72.85;45.97;;;-1.00;99.90;;;;;;5119419;27;20129;-79
2023/12/18 06:17:17;;;;;;;74.13;47.90;;;-1.00;99.90;;;;;;5138791;27;20027;-79
2023/12/18 06:19:43;;;;;;;80.93;46.03;;;-1.00;99.90;;;;;;5113848;28;20031;-79
2023/12/18 06:22:11;;;;;;;74.18;45.97;;;-1.00;99.90;;;;;;5132853;27;20028;-79
2023/12/18 06:24:38;;;;;;;74.75;44.55;;;-1.00;99.90;;;;;;5139218;27;20113;-79
2023/12/18 06:27:04;;;;;;;74.40;46.10;;;-1.00;99.90;;;;;;5138679;27;20027;-79
2023/12/18 06:29:30;;;;;;;75.88;44.08;;;-1.00;99.90;;;;;;5138564;27;20486;-78
2023/12/18 06:31:55;;;;;;;71.28;45.03;;;-1.00;99.90;;;;;;5138661;27;20035;-78
2023/12/18 06:34:21;;;;;;;68.70;44.03;;;-1.00;99.90;;;;;;5116934;28;20445;-79
2023/12/18 06:36:47;;;;;;;86.40;49.15;;;-1.00;99.90;;;;;;5133435;27;20088;-79
2023/12/18 06:39:13;;;;;;;80.15;47.10;;;-1.00;99.90;;;;;;5138667;27;20034;-80
2023/12/18 06:41:39;;;;;;;71.38;44.08;;;-1.00;99.90;;;;;;5138546;27;20038;-79
2023/12/18 06:44:05;;;;;;;78.00;48.08;;;-1.00;99.90;;;;;;5119887;27;20023;-79
2023/12/18 06:46:32;;;;;;;64.55;39.40;;;-1.00;99.90;;;;;;5138470;27;20058;-79
2023/12/18 06:48:58;;;;;;;73.65;44.85;;;-1.10;99.90;;;;;;5138517;27;20023;-80
2023/12/18 06:51:24;;;;;;;75.15;43.72;;;-1.10;99.90;;;;;;5119975;27;20509;-80
2023/12/18 06:53:50;;;;;;;77.55;44.67;;;-1.00;99.90;;;;;;5135098;27;20047;-79
2023/12/18 06:56:16;;;;;;;74.85;46.63;;;-1.00;99.90;;;;;;5138307;27;20023;-80
2023/12/18 06:58:42;;;;;;;74.43;46.05;;;-1.00;99.90;;;;;;5138159;27;20035;-80
2023/12/18 07:01:08;;;;;;;80.05;47.67;;;-1.00;99.90;;;;;;5119730;27;20134;-80
2023/12/18 07:03:34;;;;;;;77.82;46.22;;;-1.00;99.90;;;;;;5138255;27;20031;-81
2023/12/18 07:06:00;;;;;;;74.32;44.80;;;-1.00;99.90;;;;;;5119548;27;20023;-81
2023/12/18 07:08:28;;;;;;;83.93;46.50;;;-1.00;99.90;;;;;;5137832;27;20019;-80
2023/12/18 07:10:55;;;;;;;72.47;44.95;;;-1.10;99.90;;;;;;5138033;27;20494;-80
2023/12/18 07:13:21;;;;;;;76.38;47.63;;;-1.10;99.90;;;;;;5137893;27;20019;-81
2023/12/18 07:15:46;;;;;;;73.85;46.80;;;-1.10;99.90;;;;;;5127370;27;20034;-81
2023/12/18 07:18:13;;;;;;;82.82;47.25;;;-1.10;99.90;;;;;;5136627;27;20037;-81
2023/12/18 07:20:43;;;;;;;83.10;47.10;;;-1.10;99.90;;;;;;5129753;27;20031;-81
2023/12/18 07:23:10;;;;;;;71.13;46.08;;;-1.10;99.90;;;;;;5137571;27;20498;-81
2023/12/18 07:25:35;;;;;;;76.95;45.00;;;-1.10;99.90;;;;;;5116133;28;20036;-81
2023/12/18 07:28:01;;;;;;;78.03;45.03;;;-1.10;99.90;;;;;;5118325;27;20084;-80
2023/12/18 07:30:27;;;;;;;72.85;44.80;;;-1.10;99.90;;;;;;5137748;27;20047;-81
2023/12/18 07:32:52;;;;;;;76.72;46.70;;;-1.20;99.90;;;;;;5137797;27;20094;-81
2023/12/18 07:35:18;;;;;;;79.70;47.35;;;-1.20;99.90;;;;;;5137753;27;20025;-81
2023/12/18 07:37:44;;;;;;;75.65;44.17;;;-1.20;99.90;;;;;;5137654;27;20031;-81
2023/12/18 07:40:10;;;;;;;77.82;47.17;;;-1.20;99.90;;;;;;5110043;28;20027;-82
2023/12/18 07:42:36;;;;;;;80.15;47.78;;;-1.10;99.90;;;;;;5119375;27;20059;-82
2023/12/18 07:45:02;;;;;;;85.95;48.88;;;-1.10;99.90;;;;;;5117052;27;20031;-88
2023/12/18 07:47:28;;;;;;;81.47;49.50;;;-1.10;99.90;;;;;;5134231;27;20032;-87
2023/12/18 07:49:53;;;;;;;90.57;52.08;;;-1.10;99.90;;;;;;5107753;27;20027;-87
2023/12/18 07:52:19;;;;;;;96.32;56.92;;;-1.10;99.90;;;;;;5117503;27;20073;-81
2023/12/18 07:54:45;;;;;;;101.05;57.10;;;-1.10;99.90;;;;;;5114039;27;20052;-85
2023/12/18 07:57:10;;;;;;;93.80;52.38;;;-1.00;99.90;;;;;;5136357;27;20030;-87
2023/12/18 07:59:39;;;;;;;87.22;51.58;;;-1.00;99.90;;;;;;5122216;27;20027;-86
2023/12/18 08:02:06;;;;;;;154.82;74.13;;;-1.00;99.90;;;;;;5120607;27;20389;-86
2023/12/18 08:04:32;;;;;;;218.70;114.88;;;-1.00;99.90;;;;;;5117661;27;20602;-88
2023/12/18 08:06:57;;;;;;;212.77;111.53;;;-0.90;99.90;;;;;;5121812;27;20106;-86
2023/12/18 08:09:23;;;;;;;171.75;88.38;;;-0.80;99.90;;;;;;5107455;27;20498;-88
2023/12/18 08:11:49;;;;;;;157.05;79.00;;;-0.80;99.90;;;;;;5119330;27;20023;-86
2023/12/18 08:14:14;;;;;;;146.43;77.03;;;-0.80;99.90;;;;;;5114493;27;20023;-86
2023/12/18 08:16:40;;;;;;;137.98;75.07;;;-0.70;99.90;;;;;;5119797;27;20031;-84
2023/12/18 08:19:05;;;;;;;129.27;67.30;;;-0.60;99.90;;;;;;5106012;27;20043;-85
2023/12/18 08:21:31;;;;;;;130.18;69.93;;;-0.60;99.90;;;;;;5115944;27;20046;-84
2023/12/18 08:23:57;;;;;;;115.68;65.43;;;-0.50;99.90;;;;;;5113548;28;20039;-85
2023/12/18 08:26:22;;;;;;;102.20;58.92;;;-0.50;99.90;;;;;;5113117;27;20402;-86
2023/12/18 08:28:48;;;;;;;97.97;60.28;;;-0.40;99.90;;;;;;5102390;28;20043;-86
2023/12/18 08:31:13;;;;;;;107.82;64.00;;;-0.30;99.90;;;;;;5111996;28;20027;-84
2023/12/18 08:33:39;;;;;;;107.75;61.80;;;-0.20;99.90;;;;;;5101876;28;20995;-82
2023/12/18 08:36:05;;;;;;;95.72;57.25;;;-0.20;99.90;;;;;;5111060;27;20027;-81
2023/12/18 08:38:32;;;;;;;101.65;58.80;;;-0.20;99.90;;;;;;5100612;28;20034;-81
2023/12/18 08:40:58;;;;;;;100.45;58.53;;;-0.10;99.90;;;;;;5123307;27;20046;-82
2023/12/18 08:43:24;;;;;;;95.90;57.42;;;0.00;99.90;;;;;;5117437;27;20055;-82
2023/12/18 08:45:50;;;;;;;98.65;58.00;;;0.00;99.90;;;;;;5119865;28;20031;-81
2023/12/18 08:48:15;;;;;;;91.60;56.97;;;0.00;99.90;;;;;;5123081;28;20110;-81
2023/12/18 08:50:42;;;;;;;92.45;56.65;;;0.10;99.90;;;;;;5096871;28;20024;-82
2023/12/18 08:53:07;;;;;;;104.78;59.83;;;0.20;99.90;;;;;;5115799;27;20100;-81
2023/12/18 08:55:38;;;;;;;96.47;58.70;;;0.20;99.90;;;;;;5129302;27;20031;-83
2023/12/18 08:58:07;;;;;;;94.65;60.30;;;0.30;99.90;;;;;;5106694;28;20035;-82
2023/12/18 09:00:33;;;;;;;120.25;64.10;;;0.30;99.90;;;;;;5135628;27;20015;-82
2023/12/18 09:02:59;;;;;;;109.82;66.75;;;0.40;99.90;;;;;;5136112;27;20023;-82
2023/12/18 09:05:25;;;;;;;96.65;59.20;;;0.40;99.90;;;;;;5134789;27;20023;-82
2023/12/18 09:07:50;;;;;;;100.85;59.22;;;0.40;99.90;;;;;;5135395;27;20628;-81
2023/12/18 09:10:17;;;;;;;96.05;59.45;;;0.50;99.90;;;;;;5113730;28;20091;-83
2023/12/18 09:12:44;;;;;;;97.78;59.28;;;0.50;99.90;;;;;;5127830;27;20143;-81
2023/12/18 09:15:10;;;;;;;96.22;56.45;;;0.60;99.90;;;;;;5121964;27;20015;-81
2023/12/18 09:17:38;;;;;;;89.07;55.42;;;0.60;99.90;;;;;;5105633;27;20066;-81
2023/12/18 09:20:04;;;;;;;88.53;54.25;;;0.70;99.90;;;;;;5132834;27;20100;-81
2023/12/18 09:22:30;;;;;;;94.28;54.13;;;0.80;99.90;;;;;;5117198;27;20088;-83
2023/12/18 09:24:56;;;;;;;99.85;57.45;;;0.90;99.90;;;;;;5131297;27;20059;-82
2023/12/18 09:27:21;;;;;;;89.32;55.05;;;0.90;99.90;;;;;;5110747;27;20165;-84
2023/12/18 09:29:47;;;;;;;91.13;54.33;;;1.00;99.90;;;;;;5132788;27;20039;-85
2023/12/18 09:32:12;;;;;;;84.88;53.38;;;1.00;99.90;;;;;;5115450;27;20023;-84
2023/12/18 09:34:39;;;;;;;90.07;54.22;;;1.10;99.90;;;;;;5133496;27;20024;-84
2023/12/18 09:37:05;;;;;;;85.82;55.97;;;1.20;99.90;;;;;;5133594;27;20023;-84
2023/12/18 09:39:31;;;;;;;91.13;55.20;;;1.30;99.90;;;;;;5131714;27;20094;-83
2023/12/18 09:42:04;;;;;;;89.50;53.65;;;1.40;99.90;;;;;;5111897;27;20564;-82
2023/12/18 09:44:31;;;;;;;94.50;54.13;;;1.50;99.90;;;;;;5132934;27;20052;-82
2023/12/18 09:46:59;;;;;;;90.50;54.42;;;1.60;99.90;;;;;;5131002;27;20515;-81
2023/12/18 09:49:25;;;;;;;96.50;53.58;;;1.60;99.90;;;;;;5114001;27;20483;-80
2023/12/18 09:51:53;;;;;;;92.72;55.33;;;1.60;99.90;;;;;;5113548;27;20397;-80
2023/12/18 09:54:21;;;;;;;87.82;55.22;;;1.70;99.90;;;;;;5127409;27;20513;-78
2023/12/18 09:56:48;;;;;;;97.93;58.08;;;1.70;99.90;;;;;;5110634;27;20057;-79
2023/12/18 09:59:17;;;;;;;98.43;55.47;;;1.80;99.90;;;;;;5129994;27;20446;-79
2023/12/18 10:01:45;;;;;;;90.97;56.17;;;1.90;99.90;;;;;;5136646;27;20095;-79
2023/12/18 10:04:11;;;;;;;96.47;56.42;;;1.90;99.90;;;;;;5134492;27;20114;-78
2023/12/18 10:06:38;;;;;;;99.28;54.65;;;2.00;99.90;;;;;;5116641;27;20038;-79
2023/12/18 10:09:09;;;;;;;94.88;56.10;;;2.00;99.90;;;;;;5137894;27;20027;-79
2023/12/18 10:11:35;;;;;;;100.97;58.03;;;2.10;99.90;;;;;;5137384;27;20020;-78
2023/12/18 10:14:00;;;;;;;94.57;56.47;;;2.20;99.90;;;;;;5119333;27;20019;-77
2023/12/18 10:16:26;;;;;;;89.25;54.28;;;2.30;99.90;;;;;;5118535;27;20097;-78
2023/12/18 10:18:53;;;;;;;92.55;56.53;;;2.40;99.90;;;;;;5137784;27;20546;-78
2023/12/18 10:21:23;;;;;;;107.43;57.13;;;2.50;99.90;;;;;;5137570;27;20030;-78
2023/12/18 10:23:50;;;;;;;93.13;53.22;;;2.60;99.90;;;;;;5115805;27;20122;-78
2023/12/18 10:26:16;;;;;;;91.18;54.97;;;2.60;99.90;;;;;;5136898;27;20031;-78
2023/12/18 10:28:41;;;;;;;95.53;54.50;;;2.70;99.90;;;;;;5137450;27;20076;-78
2023/12/18 10:31:09;;;;;;;97.15;55.00;;;2.70;99.90;;;;;;5136917;27;20087;-78
2023/12/18 10:33:35;;;;;;;89.70;52.92;;;2.80;99.90;;;;;;5137631;27;20063;-78
2023/12/18 10:36:02;;;;;;;85.82;52.70;;;2.90;99.90;;;;;;5118130;27;20041;-77
2023/12/18 10:38:30;;;;;;;89.45;52.75;;;3.00;99.90;;;;;;5137447;27;20024;-77
2023/12/18 10:41:01;;;;;;;96.32;53.25;;;3.10;99.90;;;;;;5118913;27;20023;-77
2023/12/18 10:43:27;;;;;;;;;;;3.10;99.90;;;;;;5119290;27;20045;-76
2023/12/18 10:45:56;;;;;;;87.30;48.45;;;3.10;99.90;;;;;;5136501;27;19907;-76
2023/12/18 10:48:24;;;;;;;85.32;50.35;;;3.20;99.90;;;;;;5137261;27;20470;-77
2023/12/18 10:50:53;;;;;;;83.05;49.60;;;3.30;99.90;;;;;;5133236;27;20023;-76
2023/12/18 10:53:22;;;;;;;85.22;50.35;;;3.30;99.90;;;;;;5133119;27;20023;-77
2023/12/18 10:55:49;;;;;;;87.15;50.15;;;3.40;99.90;;;;;;5132759;27;20027;-76
2023/12/18 10:58:17;;;;;;;82.15;50.70;;;3.40;99.90;;;;;;5118175;27;20083;-76
2023/12/18 11:00:44;;;;;;;97.50;52.38;;;3.50;99.90;;;;;;5137324;27;20031;-76
2023/12/18 11:03:11;;;;;;;83.68;51.55;;;3.60;99.90;;;;;;5118712;27;20038;-75
2023/12/18 11:05:38;;;;;;;86.78;53.88;;;3.70;99.90;;;;;;5117943;27;20023;-75
2023/12/18 11:08:04;;;;;;;86.00;55.95;;;3.70;99.90;;;;;;5136659;27;20019;-76
2023/12/18 11:10:30;;;;;;;89.28;53.10;;;3.80;99.90;;;;;;5132684;27;20041;-75
2023/12/18 11:13:24;;;;;;;81.95;51.78;;;3.90;99.90;;;;;;5113216;27;20114;-75
2023/12/18 11:16:08;;;;;;;83.53;50.38;;;4.00;99.90;;;;;;5114692;27;20035;-75
2023/12/18 11:19:09;;;;;;;91.78;53.45;;;4.20;99.90;;;;;;5125467;27;20491;-75
2023/12/18 11:21:35;;;;;;;94.95;61.15;;;4.30;99.90;;;;;;5108862;27;20039;-75
2023/12/18 11:24:02;;;;;;;87.07;56.53;;;4.30;99.90;;;;;;5131626;27;20094;-75
2023/12/18 11:26:30;;;;;;;95.35;57.47;;;4.40;99.90;;;;;;5130495;27;20023;-75
2023/12/18 11:29:23;;;;;;;110.80;68.82;;;4.50;99.90;;;;;;5128323;27;20027;-75
2023/12/18 11:31:48;;;;;;;102.18;63.13;;;4.70;99.90;;;;;;5107154;27;20517;-76
2023/12/18 11:34:14;;;;;;;113.22;78.10;;;4.80;99.90;;;;;;5110942;27;20027;-73
2023/12/18 11:36:40;;;;;;;123.40;85.45;;;5.00;99.90;;;;;;5112067;27;20080;-73
2023/12/18 11:39:07;;;;;;;113.75;72.07;;;5.10;99.90;;;;;;5129686;27;20099;-73
2023/12/18 11:41:47;;;;;;;114.25;74.10;;;5.10;99.90;;;;;;5111597;27;20115;-73
2023/12/18 11:44:14;;;;;;;158.80;108.15;;;5.30;99.90;;;;;;5129033;27;20023;-73
2023/12/18 11:46:41;;;;;;;373.70;279.05;;;5.40;99.90;;;;;;5129655;27;20039;-73
2023/12/18 11:49:07;;;;;;;175.02;125.55;;;5.40;99.90;;;;;;5109295;27;20027;-73
2023/12/18 11:51:34;;;;;;;126.55;93.40;;;5.50;99.90;;;;;;5110949;27;20028;-73
2023/12/18 11:54:01;;;;;;;156.25;118.47;;;5.50;99.90;;;;;;5129670;27;20043;-73
2023/12/18 11:56:28;;;;;;;108.55;78.78;;;5.50;99.90;;;;;;5129913;27;20034;-73
2023/12/18 11:58:55;;;;;;;105.65;75.13;;;5.60;99.90;;;;;;5108851;27;20019;-73
2023/12/18 12:01:21;;;;;;;100.22;73.65;;;5.60;99.90;;;;;;5128686;27;20111;-73
2023/12/18 12:03:47;;;;;;;88.95;65.30;;;5.70;99.90;;;;;;5131798;27;20108;-73
2023/12/18 12:06:14;;;;;;;89.65;71.55;;;5.70;99.90;;;;;;5126910;27;20054;-73
2023/12/18 12:08:46;;;;;;;103.82;85.57;;;5.70;99.90;;;;;;5129737;27;20049;-73
2023/12/18 12:11:12;;;;;;;122.57;87.95;;;5.80;99.90;;;;;;5128631;27;20023;-73
2023/12/18 12:13:38;;;;;;;106.40;84.80;;;5.90;99.90;;;;;;5112396;27;20044;-73
2023/12/18 12:16:04;;;;;;;82.82;64.20;;;6.00;99.90;;;;;;5125253;27;20031;-73
2023/12/18 12:18:32;;;;;;;59.88;47.13;;;6.10;99.90;;;;;;5130856;27;20503;-73
2023/12/18 12:20:58;;;;;;;52.85;43.17;;;6.10;99.90;;;;;;5130566;27;20039;-73
2023/12/18 12:23:24;;;;;;;60.45;41.95;;;6.30;99.90;;;;;;5131017;27;20015;-73
2023/12/18 12:26:01;;;;;;;56.58;41.55;;;6.30;99.90;;;;;;5110981;28;20571;-73